TimeCST,TemperatureF,Dew PointF,Humidity,Sea Level PressureIn,VisibilityMPH,Wind Direction,Wind SpeedMPH,Gust SpeedMPH,PrecipitationIn,Events,Conditions,WindDirDegrees,DateUTC
12:53 AM,28.0,24.1,85,30.22,6.0,NE,4.6,-,N/A,,Clear,50,2014-02-17 06:53:00
1:53 AM,27.0,24.1,89,30.21,6.0,NE,4.6,-,N/A,,Clear,50,2014-02-17 07:53:00
2:53 AM,28.9,25.0,85,30.20,6.0,ENE,5.8,-,N/A,,Clear,70,2014-02-17 08:53:00
3:53 AM,28.9,25.0,85,30.19,6.0,ENE,6.9,-,N/A,,Clear,70,2014-02-17 09:53:00
4:53 AM,30.0,25.0,82,30.19,7.0,East,6.9,-,N/A,,Clear,80,2014-02-17 10:53:00
5:53 AM,30.0,26.1,85,30.17,6.0,ENE,5.8,-,N/A,,Clear,70,2014-02-17 11:53:00
6:53 AM,30.9,26.1,82,30.15,6.0,East,6.9,-,N/A,,Haze,80,2014-02-17 12:53:00
7:53 AM,33.1,27.0,78,30.15,6.0,SE,6.9,-,N/A,,Haze,130,2014-02-17 13:53:00
8:53 AM,37.9,30.0,73,30.10,8.0,ESE,8.1,-,N/A,,Clear,120,2014-02-17 14:53:00
9:53 AM,43.0,30.9,62,30.07,10.0,ESE,9.2,-,N/A,,Partly Cloudy,120,2014-02-17 15:53:00
10:53 AM,51.1,32.0,48,30.01,10.0,SSE,9.2,-,N/A,,Mostly Cloudy,150,2014-02-17 16:53:00
11:53 AM,54.0,32.0,43,29.94,10.0,South,13.8,-,0.00,,Overcast,170,2014-02-17 17:53:00
12:43 PM,50.0,41.0,71,29.88,2.5,South,11.5,23.0,0.04,Rain,Rain,180,2014-02-17 18:43:00
12:51 PM,50.0,41.0,71,29.87,9.0,South,12.7,-,0.04,Rain,Light Rain,170,2014-02-17 18:51:00
12:53 PM,51.1,41.0,68,29.87,10.0,South,13.8,-,0.04,,Overcast,180,2014-02-17 18:53:00
1:53 PM,55.9,44.1,64,29.82,10.0,South,20.7,31.1,N/A,,Overcast,180,2014-02-17 19:53:00
2:53 PM,57.9,46.0,65,29.78,10.0,South,25.3,34.5,N/A,,Overcast,190,2014-02-17 20:53:00
3:13 PM,55.9,48.9,77,29.81,4.0,SSW,18.4,26.5,0.05,Rain,Light Rain,210,2014-02-17 21:13:00
3:43 PM,55.0,50.0,83,29.83,2.0,SW,17.3,24.2,0.11,Rain,Rain,220,2014-02-17 21:43:00
3:53 PM,54.0,51.1,90,29.84,3.0,SW,12.7,23.0,0.12,Rain,Light Rain,230,2014-02-17 21:53:00
4:09 PM,54.0,51.1,90,29.86,2.5,WSW,15.0,-,0.02,Rain,Rain,250,2014-02-17 22:09:00
4:19 PM,54.0,52.0,93,29.87,1.8,West,13.8,20.7,0.06,Rain,Rain,260,2014-02-17 22:19:00
4:34 PM,54.0,52.0,93,29.89,3.0,West,10.4,21.9,0.10,Rain,Light Rain,260,2014-02-17 22:34:00
4:50 PM,53.6,51.8,94,29.91,9.0,West,26.5,34.5,0.10,Rain,Light Rain,260,2014-02-17 22:50:00
4:53 PM,54.0,50.0,86,29.93,10.0,West,24.2,34.5,0.10,Rain,Light Rain,270,2014-02-17 22:53:00
4:57 PM,53.1,48.9,86,29.93,10.0,West,21.9,34.5,0.00,,Overcast,270,2014-02-17 22:57:00
5:53 PM,48.9,43.0,80,29.98,10.0,West,11.5,-,0.00,,Overcast,280,2014-02-17 23:53:00
6:23 PM,46.0,39.9,79,30.00,10.0,West,13.8,-,N/A,,Scattered Clouds,280,2014-02-18 00:23:00
6:53 PM,45.0,39.0,80,30.04,10.0,WSW,9.2,-,N/A,,Clear,250,2014-02-18 00:53:00
7:53 PM,44.1,37.9,79,30.09,9.0,WSW,6.9,-,N/A,,Clear,250,2014-02-18 01:53:00
8:53 PM,42.1,37.0,82,30.12,9.0,West,5.8,-,N/A,,Clear,260,2014-02-18 02:53:00
9:53 PM,37.0,35.1,93,30.13,5.0,South,4.6,-,N/A,,Clear,180,2014-02-18 03:53:00
10:53 PM,37.0,35.1,93,30.13,7.0,SSW,4.6,-,N/A,,Clear,210,2014-02-18 04:53:00
11:53 PM,37.9,35.1,89,30.14,8.0,SW,5.8,-,N/A,,Clear,220,2014-02-18 05:53:00